sensor_id;sensor_type;location;lat;lon;timestamp;pressure;altitude;pressure_sealevel;temperature;humidity
74573;BME280;63071;51.526;-0.134;2023-03-01T00:01:16;102839.47;;;22.49;27.87
74573;BME280;63071;51.526;-0.134;2023-03-01T00:03:42;102836.78;;;22.49;27.72
74573;BME280;63071;51.526;-0.134;2023-03-01T00:06:08;102839.47;;;22.49;28.29
74573;BME280;63071;51.526;-0.134;2023-03-01T00:08:34;102833.34;;;22.49;27.95
74573;BME280;63071;51.526;-0.134;2023-03-01T00:11:22;102837.44;;;22.55;28.19
74573;BME280;63071;51.526;-0.134;2023-03-01T00:13:50;102848.22;;;22.50;27.72
74573;BME280;63071;51.526;-0.134;2023-03-01T00:16:20;102837.09;;;22.48;27.76
74573;BME280;63071;51.526;-0.134;2023-03-01T00:18:46;102845.88;;;22.48;28.07
74573;BME280;63071;51.526;-0.134;2023-03-01T00:21:12;102840.53;;;22.48;28.12
74573;BME280;63071;51.526;-0.134;2023-03-01T00:23:38;102851.53;;;22.47;27.73
74573;BME280;63071;51.526;-0.134;2023-03-01T00:26:08;102847.00;;;22.47;27.70
74573;BME280;63071;51.526;-0.134;2023-03-01T00:28:34;102854.97;;;22.47;28.17
74573;BME280;63071;51.526;-0.134;2023-03-01T00:31:07;102852.31;;;22.47;28.11
74573;BME280;63071;51.526;-0.134;2023-03-01T00:33:33;102850.44;;;22.48;28.16
74573;BME280;63071;51.526;-0.134;2023-03-01T00:35:59;102847.59;;;22.44;28.27
74573;BME280;63071;51.526;-0.134;2023-03-01T00:38:26;102843.53;;;22.47;27.64
74573;BME280;63071;51.526;-0.134;2023-03-01T00:40:51;102847.59;;;22.44;28.26
74573;BME280;63071;51.526;-0.134;2023-03-01T00:43:17;102846.53;;;22.45;28.31
74573;BME280;63071;51.526;-0.134;2023-03-01T00:45:43;102839.94;;;22.43;28.05
74573;BME280;63071;51.526;-0.134;2023-03-01T00:48:08;102834.75;;;22.46;27.82
74573;BME280;63071;51.526;-0.134;2023-03-01T00:50:34;102844.63;;;22.46;27.98
74573;BME280;63071;51.526;-0.134;2023-03-01T00:52:59;102838.53;;;22.45;28.27
74573;BME280;63071;51.526;-0.134;2023-03-01T00:55:25;102845.41;;;22.46;27.82
74573;BME280;63071;51.526;-0.134;2023-03-01T00:57:51;102825.69;;;22.38;28.17
74573;BME280;63071;51.526;-0.134;2023-03-01T01:00:17;102836.47;;;22.42;27.94
74573;BME280;63071;51.526;-0.134;2023-03-01T01:02:43;102832.41;;;22.45;28.25
74573;BME280;63071;51.526;-0.134;2023-03-01T01:05:09;102831.63;;;22.44;27.67
74573;BME280;63071;51.526;-0.134;2023-03-01T01:07:35;102833.03;;;22.42;27.84
74573;BME280;63071;51.526;-0.134;2023-03-01T01:10:00;102837.59;;;22.41;28.02
74573;BME280;63071;51.526;-0.134;2023-03-01T01:12:26;102834.28;;;22.44;28.24
74573;BME280;63071;51.526;-0.134;2023-03-01T01:14:51;102836.94;;;22.44;28.19
74573;BME280;63071;51.526;-0.134;2023-03-01T01:17:17;102836.94;;;22.44;27.45
74573;BME280;63071;51.526;-0.134;2023-03-01T01:19:42;102836.94;;;22.44;27.80
74573;BME280;63071;51.526;-0.134;2023-03-01T01:22:08;102834.28;;;22.44;28.24
74573;BME280;63071;51.526;-0.134;2023-03-01T01:24:35;102834.28;;;22.44;28.09
74573;BME280;63071;51.526;-0.134;2023-03-01T01:27:01;102831.63;;;22.44;27.63
74573;BME280;63071;51.526;-0.134;2023-03-01T01:29:26;102825.50;;;22.44;27.76
74573;BME280;63071;51.526;-0.134;2023-03-01T01:31:52;102828.16;;;22.44;27.67
74573;BME280;63071;51.526;-0.134;2023-03-01T01:34:20;102820.94;;;22.44;28.21
74573;BME280;63071;51.526;-0.134;2023-03-01T01:36:50;102819.41;;;22.43;27.57
74573;BME280;63071;51.526;-0.134;2023-03-01T01:39:18;102830.69;;;22.40;28.02
74573;BME280;63071;51.526;-0.134;2023-03-01T01:41:44;102827.41;;;22.43;27.52
74573;BME280;63071;51.526;-0.134;2023-03-01T01:46:47;102826.63;;;22.43;27.76
74573;BME280;63071;51.526;-0.134;2023-03-01T01:49:40;102814.56;;;22.36;28.19
74573;BME280;63071;51.526;-0.134;2023-03-01T01:52:27;102805.59;;;22.41;27.58
74573;BME280;63071;51.526;-0.134;2023-03-01T01:55:04;102805.91;;;22.39;27.89
74573;BME280;63071;51.526;-0.134;2023-03-01T01:57:40;102811.72;;;22.42;27.44
74573;BME280;63071;51.526;-0.134;2023-03-01T02:00:13;102798.41;;;22.42;27.64
74573;BME280;63071;51.526;-0.134;2023-03-01T02:02:40;102796.50;;;22.42;27.66
74573;BME280;63071;51.526;-0.134;2023-03-01T02:08:12;102783.19;;;22.42;27.83
74573;BME280;63071;51.526;-0.134;2023-03-01T02:10:40;102786.50;;;22.39;27.62
74573;BME280;63071;51.526;-0.134;2023-03-01T02:13:06;102787.91;;;22.45;27.33
74573;BME280;63071;51.526;-0.134;2023-03-01T02:15:37;102774.09;;;22.43;27.46
74573;BME280;63071;51.526;-0.134;2023-03-01T02:18:04;102774.09;;;22.43;27.96
74573;BME280;63071;51.526;-0.134;2023-03-01T02:20:34;102777.84;;;22.42;27.77
74573;BME280;63071;51.526;-0.134;2023-03-01T02:23:03;102770.97;;;22.41;27.63
74573;BME280;63071;51.526;-0.134;2023-03-01T02:28:18;102772.06;;;22.40;27.62
74573;BME280;63071;51.526;-0.134;2023-03-01T02:30:47;102763.59;;;22.38;27.96
74573;BME280;63071;51.526;-0.134;2023-03-01T02:33:35;102759.84;;;22.39;27.48
74573;BME280;63071;51.526;-0.134;2023-03-01T02:36:29;102759.84;;;22.39;27.62
74573;BME280;63071;51.526;-0.134;2023-03-01T02:38:58;102754.53;;;22.39;27.19
74573;BME280;63071;51.526;-0.134;2023-03-01T02:41:29;102760.63;;;22.39;27.44
74573;BME280;63071;51.526;-0.134;2023-03-01T02:43:57;102758.75;;;22.40;27.36
74573;BME280;63071;51.526;-0.134;2023-03-01T02:46:24;102758.75;;;22.40;27.70
74573;BME280;63071;51.526;-0.134;2023-03-01T02:48:56;102754.81;;;22.37;27.97
74573;BME280;63071;51.526;-0.134;2023-03-01T02:54:24;102753.75;;;22.38;27.79
74573;BME280;63071;51.526;-0.134;2023-03-01T02:56:51;102744.94;;;22.38;27.77
74573;BME280;63071;51.526;-0.134;2023-03-01T02:59:20;102743.41;;;22.37;27.50
74573;BME280;63071;51.526;-0.134;2023-03-01T03:01:47;102735.41;;;22.37;27.56
74573;BME280;63071;51.526;-0.134;2023-03-01T03:04:17;102732.28;;;22.35;27.65
74573;BME280;63071;51.526;-0.134;2023-03-01T03:06:49;102730.06;;;22.37;27.86
74573;BME280;63071;51.526;-0.134;2023-03-01T03:09:16;102728.97;;;22.38;27.25
74573;BME280;63071;51.526;-0.134;2023-03-01T03:11:42;102725.53;;;22.37;27.71
74573;BME280;63071;51.526;-0.134;2023-03-01T03:14:09;102726.16;;;22.34;27.49
74573;BME280;63071;51.526;-0.134;2023-03-01T03:16:49;102725.81;;;22.36;27.75
74573;BME280;63071;51.526;-0.134;2023-03-01T03:19:17;102729.31;;;22.36;27.39
74573;BME280;63071;51.526;-0.134;2023-03-01T03:21:44;102726.63;;;22.36;27.44
74573;BME280;63071;51.526;-0.134;2023-03-01T03:24:09;102729.31;;;22.36;27.75
74573;BME280;63071;51.526;-0.134;2023-03-01T03:26:35;102720.50;;;22.36;27.89
74573;BME280;63071;51.526;-0.134;2023-03-01T03:29:00;102722.38;;;22.35;27.85
74573;BME280;63071;51.526;-0.134;2023-03-01T03:31:27;102721.63;;;22.35;27.57
74573;BME280;63071;51.526;-0.134;2023-03-01T03:33:53;102715.16;;;22.36;27.85
74573;BME280;63071;51.526;-0.134;2023-03-01T03:36:21;102707.19;;;22.36;27.50
74573;BME280;63071;51.526;-0.134;2023-03-01T03:38:47;102713.31;;;22.36;27.21
74573;BME280;63071;51.526;-0.134;2023-03-01T03:41:13;102709.84;;;22.36;27.30
74573;BME280;63071;51.526;-0.134;2023-03-01T03:43:40;102707.97;;;22.36;27.56
74573;BME280;63071;51.526;-0.134;2023-03-01T03:46:09;102708.59;;;22.33;27.82
74573;BME280;63071;51.526;-0.134;2023-03-01T03:48:43;102706.41;;;22.35;27.48
74573;BME280;63071;51.526;-0.134;2023-03-01T03:51:11;102702.97;;;22.35;27.40
74573;BME280;63071;51.526;-0.134;2023-03-01T03:53:37;102705.63;;;22.35;27.64
74573;BME280;63071;51.526;-0.134;2023-03-01T03:56:03;102694.97;;;22.35;27.71
74573;BME280;63071;51.526;-0.134;2023-03-01T03:58:28;102703.75;;;22.35;27.12
74573;BME280;63071;51.526;-0.134;2023-03-01T04:00:56;102695.75;;;22.35;27.25
74573;BME280;63071;51.526;-0.134;2023-03-01T04:03:23;102685.41;;;22.34;27.41
74573;BME280;63071;51.526;-0.134;2023-03-01T04:05:50;102693.41;;;22.34;27.45
74573;BME280;63071;51.526;-0.134;2023-03-01T04:08:18;102686.97;;;22.35;27.42
74573;BME280;63071;51.526;-0.134;2023-03-01T04:10:47;102684.94;;;22.32;27.09
74573;BME280;63071;51.526;-0.134;2023-03-01T04:13:16;102691.34;;;22.39;27.31
74573;BME280;63071;51.526;-0.134;2023-03-01T04:15:43;102676.78;;;22.37;27.08
74573;BME280;63071;51.526;-0.134;2023-03-01T04:18:12;102680.53;;;22.36;27.32
74573;BME280;63071;51.526;-0.134;2023-03-01T04:20:38;102672.09;;;22.34;27.26
74573;BME280;63071;51.526;-0.134;2023-03-01T04:23:16;102672.88;;;22.34;27.59
74573;BME280;63071;51.526;-0.134;2023-03-01T04:25:46;102681.66;;;22.35;27.37
74573;BME280;63071;51.526;-0.134;2023-03-01T04:28:14;102673.66;;;22.35;27.14
74573;BME280;63071;51.526;-0.134;2023-03-01T04:30:40;102662.53;;;22.33;27.09
74573;BME280;63071;51.526;-0.134;2023-03-01T04:33:11;102657.53;;;22.31;27.23
74573;BME280;63071;51.526;-0.134;2023-03-01T04:35:37;102659.56;;;22.34;27.78
74573;BME280;63071;51.526;-0.134;2023-03-01T04:38:04;102668.34;;;22.35;27.67
74573;BME280;63071;51.526;-0.134;2023-03-01T04:40:30;102667.22;;;22.36;27.71
74573;BME280;63071;51.526;-0.134;2023-03-01T04:42:55;102673.66;;;22.35;27.43
74573;BME280;63071;51.526;-0.134;2023-03-01T04:45:21;102663.00;;;22.35;27.31
74573;BME280;63071;51.526;-0.134;2023-03-01T04:47:47;102665.66;;;22.35;27.37
74573;BME280;63071;51.526;-0.134;2023-03-01T04:50:16;102658.44;;;22.35;27.12
74573;BME280;63071;51.526;-0.134;2023-03-01T04:52:43;102664.09;;;22.34;27.51
74573;BME280;63071;51.526;-0.134;2023-03-01T04:55:10;102666.44;;;22.35;27.31
74573;BME280;63071;51.526;-0.134;2023-03-01T04:57:35;102663.00;;;22.35;27.01
74573;BME280;63071;51.526;-0.134;2023-03-01T05:00:02;102656.91;;;22.34;27.73
74573;BME280;63071;51.526;-0.134;2023-03-01T05:03:06;102653.44;;;22.34;27.02
74573;BME280;63071;51.526;-0.134;2023-03-01T05:05:34;102651.09;;;22.32;26.97
74573;BME280;63071;51.526;-0.134;2023-03-01T05:08:03;102654.25;;;22.34;27.25
74573;BME280;63071;51.526;-0.134;2023-03-01T05:10:32;102643.44;;;22.31;27.51
74573;BME280;63071;51.526;-0.134;2023-03-01T05:12:59;102648.75;;;22.31;27.42
74573;BME280;63071;51.526;-0.134;2023-03-01T05:15:26;102652.34;;;22.35;27.75
74573;BME280;63071;51.526;-0.134;2023-03-01T05:17:53;102656.91;;;22.34;26.97
74573;BME280;63071;51.526;-0.134;2023-03-01T05:20:20;102651.56;;;22.34;27.01
74573;BME280;63071;51.526;-0.134;2023-03-01T05:22:50;102651.56;;;22.34;26.94
74573;BME280;63071;51.526;-0.134;2023-03-01T05:25:16;102647.03;;;22.35;27.47
74573;BME280;63071;51.526;-0.134;2023-03-01T05:27:42;102624.94;;;22.26;27.11
74573;BME280;63071;51.526;-0.134;2023-03-01T05:30:08;102636.97;;;22.32;27.09
74573;BME280;63071;51.526;-0.134;2023-03-01T05:32:45;102644.66;;;22.33;27.43
74573;BME280;63071;51.526;-0.134;2023-03-01T05:35:12;102636.69;;;22.33;27.56
74573;BME280;63071;51.526;-0.134;2023-03-01T05:37:43;102637.44;;;22.34;27.72
74573;BME280;63071;51.526;-0.134;2023-03-01T05:40:15;102627.91;;;22.33;27.58
74573;BME280;63071;51.526;-0.134;2023-03-01T05:42:43;102628.69;;;22.33;27.26
74573;BME280;63071;51.526;-0.134;2023-03-01T05:45:10;102627.91;;;22.33;27.09
74573;BME280;63071;51.526;-0.134;2023-03-01T05:47:38;102630.09;;;22.31;27.32
74573;BME280;63071;51.526;-0.134;2023-03-01T05:50:16;102630.56;;;22.33;27.21
74573;BME280;63071;51.526;-0.134;2023-03-01T05:52:50;102627.91;;;22.33;27.58
74573;BME280;63071;51.526;-0.134;2023-03-01T05:55:20;102633.25;;;22.33;27.27
74573;BME280;63071;51.526;-0.134;2023-03-01T05:57:46;102629.31;;;22.30;27.33
74573;BME280;63071;51.526;-0.134;2023-03-01T06:00:15;102626.00;;;22.33;27.42
74573;BME280;63071;51.526;-0.134;2023-03-01T06:02:40;102617.09;;;22.29;26.99
74573;BME280;63071;51.526;-0.134;2023-03-01T06:05:08;102623.97;;;22.30;27.25
74573;BME280;63071;51.526;-0.134;2023-03-01T06:07:34;102624.78;;;22.31;27.55
74573;BME280;63071;51.526;-0.134;2023-03-01T06:10:00;102631.81;;;22.35;27.54
74573;BME280;63071;51.526;-0.134;2023-03-01T06:12:25;102626.13;;;22.46;27.86
74573;BME280;63071;51.526;-0.134;2023-03-01T06:14:51;102633.19;;;22.42;27.34
74573;BME280;63071;51.526;-0.134;2023-03-01T06:17:16;102626.31;;;22.40;27.38
74573;BME280;63071;51.526;-0.134;2023-03-01T06:19:42;102635.88;;;22.42;27.94
74573;BME280;63071;51.526;-0.134;2023-03-01T06:22:08;102634.63;;;22.39;27.64
74573;BME280;63071;51.526;-0.134;2023-03-01T06:24:34;102635.09;;;22.41;27.62
74573;BME280;63071;51.526;-0.134;2023-03-01T06:26:59;102632.44;;;22.41;27.86
74573;BME280;63071;51.526;-0.134;2023-03-01T06:29:25;102635.09;;;22.41;27.85
74573;BME280;63071;51.526;-0.134;2023-03-01T06:31:50;102635.09;;;22.41;27.11
74573;BME280;63071;51.526;-0.134;2023-03-01T06:34:16;102632.88;;;22.43;27.54
74573;BME280;63071;51.526;-0.134;2023-03-01T06:36:41;102640.56;;;22.45;27.10
74573;BME280;63071;51.526;-0.134;2023-03-01T06:39:07;102648.88;;;22.43;27.45
74573;BME280;63071;51.526;-0.134;2023-03-01T06:41:32;102644.47;;;22.47;27.69
74573;BME280;63071;51.526;-0.134;2023-03-01T06:43:59;102645.25;;;22.48;27.77
74573;BME280;63071;51.526;-0.134;2023-03-01T06:46:24;102647.91;;;22.48;27.60
74573;BME280;63071;51.526;-0.134;2023-03-01T06:48:50;102649.50;;;22.49;27.81
74573;BME280;63071;51.526;-0.134;2023-03-01T06:51:15;102655.28;;;22.51;27.60
74573;BME280;63071;51.526;-0.134;2023-03-01T06:53:41;102650.72;;;22.51;27.49
74573;BME280;63071;51.526;-0.134;2023-03-01T06:56:06;102644.63;;;22.51;27.48
74573;BME280;63071;51.526;-0.134;2023-03-01T06:58:32;102650.72;;;22.51;27.47
74573;BME280;63071;51.526;-0.134;2023-03-01T07:00:57;102651.81;;;22.50;27.55
74573;BME280;63071;51.526;-0.134;2023-03-01T07:03:23;102652.63;;;22.51;27.78
74573;BME280;63071;51.526;-0.134;2023-03-01T07:05:49;102649.16;;;22.50;27.38
74573;BME280;63071;51.526;-0.134;2023-03-01T07:08:17;102646.03;;;22.48;27.16
74573;BME280;63071;51.526;-0.134;2023-03-01T07:10:43;102655.59;;;22.49;27.10
74573;BME280;63071;51.526;-0.134;2023-03-01T07:13:08;102655.59;;;22.49;27.76
74573;BME280;63071;51.526;-0.134;2023-03-01T07:15:34;102652.16;;;22.49;27.24
74573;BME280;63071;51.526;-0.134;2023-03-01T07:17:59;102652.94;;;22.49;27.74
74573;BME280;63071;51.526;-0.134;2023-03-01T07:20:25;102646.38;;;22.47;27.52
74573;BME280;63071;51.526;-0.134;2023-03-01T07:22:51;102658.56;;;22.48;27.60
74573;BME280;63071;51.526;-0.134;2023-03-01T07:25:17;102659.34;;;22.48;27.55
74573;BME280;63071;51.526;-0.134;2023-03-01T07:27:42;102653.25;;;22.48;27.74
74573;BME280;63071;51.526;-0.134;2023-03-01T07:30:08;102662.81;;;22.49;27.75
74573;BME280;63071;51.526;-0.134;2023-03-01T07:32:34;102663.13;;;22.47;27.64
74573;BME280;63071;51.526;-0.134;2023-03-01T07:34:59;102656.22;;;22.46;27.56
74573;BME280;63071;51.526;-0.134;2023-03-01T07:37:25;102659.69;;;22.47;27.73
74573;BME280;63071;51.526;-0.134;2023-03-01T07:39:50;102660.00;;;22.45;27.58
74573;BME280;63071;51.526;-0.134;2023-03-01T07:42:16;102650.13;;;22.46;27.65
74573;BME280;63071;51.526;-0.134;2023-03-01T07:44:41;102653.56;;;22.46;27.69
74573;BME280;63071;51.526;-0.134;2023-03-01T07:47:07;102652.00;;;22.45;27.52
74573;BME280;63071;51.526;-0.134;2023-03-01T07:49:32;102650.88;;;22.46;27.48
74573;BME280;63071;51.526;-0.134;2023-03-01T07:51:58;102644.00;;;22.45;27.60
74573;BME280;63071;51.526;-0.134;2023-03-01T07:54:23;102647.75;;;22.44;27.65
74573;BME280;63071;51.526;-0.134;2023-03-01T07:56:49;102641.34;;;22.45;27.22
74573;BME280;63071;51.526;-0.134;2023-03-01T07:59:15;102648.56;;;22.45;27.13
74573;BME280;63071;51.526;-0.134;2023-03-01T08:01:40;102645.09;;;22.44;27.09
74573;BME280;63071;51.526;-0.134;2023-03-01T08:04:07;102649.34;;;22.45;27.22
74573;BME280;63071;51.526;-0.134;2023-03-01T08:06:34;102649.66;;;22.44;27.09
74573;BME280;63071;51.526;-0.134;2023-03-01T08:09:00;102656.56;;;22.45;27.60
74573;BME280;63071;51.526;-0.134;2023-03-01T08:11:26;102651.22;;;22.45;27.19
74573;BME280;63071;51.526;-0.134;2023-03-01T08:13:53;102646.19;;;22.52;27.49
74573;BME280;63071;51.526;-0.134;2023-03-01T08:16:19;102649.34;;;22.45;27.37
74573;BME280;63071;51.526;-0.134;2023-03-01T08:18:44;102643.22;;;22.45;27.62
74573;BME280;63071;51.526;-0.134;2023-03-01T08:21:15;102643.22;;;22.45;27.52
74573;BME280;63071;51.526;-0.134;2023-03-01T08:23:42;102636.31;;;22.44;27.67
74573;BME280;63071;51.526;-0.134;2023-03-01T08:26:09;102636.31;;;22.44;27.33
74573;BME280;63071;51.526;-0.134;2023-03-01T08:28:36;102626.44;;;22.44;27.47
74573;BME280;63071;51.526;-0.134;2023-03-01T08:31:02;102625.22;;;22.42;27.31
74573;BME280;63071;51.526;-0.134;2023-03-01T08:33:28;102620.53;;;22.38;27.46
74573;BME280;63071;51.526;-0.134;2023-03-01T08:36:02;102629.91;;;22.45;27.60
74573;BME280;63071;51.526;-0.134;2023-03-01T08:38:27;102632.56;;;22.45;27.16
74573;BME280;63071;51.526;-0.134;2023-03-01T08:40:53;102629.09;;;22.44;27.18
74573;BME280;63071;51.526;-0.134;2023-03-01T08:43:18;102621.91;;;22.45;26.97
74573;BME280;63071;51.526;-0.134;2023-03-01T08:45:44;102623.78;;;22.44;27.30
74573;BME280;63071;51.526;-0.134;2023-03-01T08:48:09;102620.81;;;22.46;27.65
74573;BME280;63071;51.526;-0.134;2023-03-01T08:50:35;102619.25;;;22.45;27.67
74573;BME280;63071;51.526;-0.134;2023-03-01T08:53:00;102619.25;;;22.45;27.50
74573;BME280;63071;51.526;-0.134;2023-03-01T08:55:26;102613.13;;;22.44;27.58
74573;BME280;63071;51.526;-0.134;2023-03-01T08:57:51;102616.91;;;22.43;27.23
74573;BME280;63071;51.526;-0.134;2023-03-01T09:00:17;102620.34;;;22.44;27.45
74573;BME280;63071;51.526;-0.134;2023-03-01T09:02:43;102622.69;;;22.45;27.70
74573;BME280;63071;51.526;-0.134;2023-03-01T09:05:08;102627.72;;;22.47;27.48
74573;BME280;63071;51.526;-0.134;2023-03-01T09:07:34;102626.13;;;22.46;27.33
74573;BME280;63071;51.526;-0.134;2023-03-01T09:09:59;102617.81;;;22.47;27.27
74573;BME280;63071;51.526;-0.134;2023-03-01T09:12:25;102625.34;;;22.45;27.40
74573;BME280;63071;51.526;-0.134;2023-03-01T09:14:50;102617.81;;;22.47;27.19
74573;BME280;63071;51.526;-0.134;2023-03-01T09:17:16;102618.28;;;22.49;27.43
74573;BME280;63071;51.526;-0.134;2023-03-01T09:19:41;102609.97;;;22.51;27.09
74573;BME280;63071;51.526;-0.134;2023-03-01T09:22:07;102606.50;;;22.50;27.55
74573;BME280;63071;51.526;-0.134;2023-03-01T09:24:32;102604.66;;;22.51;27.09
74573;BME280;63071;51.526;-0.134;2023-03-01T09:26:57;102596.19;;;22.49;27.02
74573;BME280;63071;51.526;-0.134;2023-03-01T09:29:23;102598.88;;;22.49;27.28
74573;BME280;63071;51.526;-0.134;2023-03-01T09:31:49;102592.41;;;22.50;27.09
74573;BME280;63071;51.526;-0.134;2023-03-01T09:34:14;102595.84;;;22.50;27.36
74573;BME280;63071;51.526;-0.134;2023-03-01T09:36:44;102589.75;;;22.50;27.23
74573;BME280;63071;51.526;-0.134;2023-03-01T09:39:09;102586.31;;;22.49;27.54
74573;BME280;63071;51.526;-0.134;2023-03-01T09:44:30;102585.19;;;22.50;27.62
74573;BME280;63071;51.526;-0.134;2023-03-01T09:46:59;102583.34;;;22.51;27.54
74573;BME280;63071;51.526;-0.134;2023-03-01T09:49:29;102591.34;;;22.51;27.31
74573;BME280;63071;51.526;-0.134;2023-03-01T09:54:58;102566.09;;;22.48;27.66
74573;BME280;63071;51.526;-0.134;2023-03-01T09:57:38;102566.09;;;22.48;27.41
74573;BME280;63071;51.526;-0.134;2023-03-01T10:03:23;102573.00;;;22.49;27.52
74573;BME280;63071;51.526;-0.134;2023-03-01T10:11:05;102574.22;;;22.52;27.26
74573;BME280;63071;51.526;-0.134;2023-03-01T10:14:04;102564.94;;;22.58;27.07
74573;BME280;63071;51.526;-0.134;2023-03-01T10:19:14;102565.59;;;22.55;27.56
74573;BME280;63071;51.526;-0.134;2023-03-01T10:21:45;102575.47;;;22.54;27.16
74573;BME280;63071;51.526;-0.134;2023-03-01T10:24:16;102566.38;;;22.55;27.60
74573;BME280;63071;51.526;-0.134;2023-03-01T10:26:54;102574.06;;;22.57;27.58
74573;BME280;63071;51.526;-0.134;2023-03-01T10:29:29;102574.19;;;22.60;27.50
74573;BME280;63071;51.526;-0.134;2023-03-01T10:31:57;102573.88;;;22.62;27.58
74573;BME280;63071;51.526;-0.134;2023-03-01T10:34:31;102564.78;;;22.63;27.02
74573;BME280;63071;51.526;-0.134;2023-03-01T10:37:11;102563.97;;;22.63;27.70
74573;BME280;63071;51.526;-0.134;2023-03-01T10:39:37;102570.88;;;22.64;27.92
74573;BME280;63071;51.526;-0.134;2023-03-01T10:42:26;102562.56;;;22.65;27.66
74573;BME280;63071;51.526;-0.134;2023-03-01T10:44:52;102553.13;;;22.68;27.76
74573;BME280;63071;51.526;-0.134;2023-03-01T10:47:26;102546.22;;;22.67;27.48
74573;BME280;63071;51.526;-0.134;2023-03-01T10:49:56;102553.59;;;22.70;27.33
74573;BME280;63071;51.526;-0.134;2023-03-01T10:52:32;102556.72;;;22.72;27.47
74573;BME280;63071;51.526;-0.134;2023-03-01T10:55:03;102558.28;;;22.73;27.85
74573;BME280;63071;51.526;-0.134;2023-03-01T10:57:37;102549.19;;;22.74;27.58
74573;BME280;63071;51.526;-0.134;2023-03-01T11:00:23;102538.97;;;22.76;27.39
74573;BME280;63071;51.526;-0.134;2023-03-01T11:03:09;102545.09;;;22.76;27.72
74573;BME280;63071;51.526;-0.134;2023-03-01T11:05:36;102537.88;;;22.77;27.59
74573;BME280;63071;51.526;-0.134;2023-03-01T11:08:02;102534.88;;;22.78;27.61
74573;BME280;63071;51.526;-0.134;2023-03-01T11:10:31;102522.66;;;22.77;27.45
74573;BME280;63071;51.526;-0.134;2023-03-01T11:13:18;102527.34;;;22.80;27.66
74573;BME280;63071;51.526;-0.134;2023-03-01T11:16:07;102527.03;;;22.82;27.84
74573;BME280;63071;51.526;-0.134;2023-03-01T11:18:35;102520.13;;;22.81;27.61
74573;BME280;63071;51.526;-0.134;2023-03-01T11:21:02;102522.47;;;22.83;27.68
74573;BME280;63071;51.526;-0.134;2023-03-01T11:23:33;102512.91;;;22.82;27.43
74573;BME280;63071;51.526;-0.134;2023-03-01T11:26:02;102506.47;;;22.83;27.53
74573;BME280;63071;51.526;-0.134;2023-03-01T11:28:32;102512.06;;;22.90;28.28
74573;BME280;63071;51.526;-0.134;2023-03-01T11:31:03;102505.16;;;22.89;28.68
74573;BME280;63071;51.526;-0.134;2023-03-01T11:38:43;102489.31;;;22.92;28.74
74573;BME280;63071;51.526;-0.134;2023-03-01T11:41:23;102482.22;;;22.96;28.27
74573;BME280;63071;51.526;-0.134;2023-03-01T11:52:00;102478.84;;;23.08;28.61
74573;BME280;63071;51.526;-0.134;2023-03-01T11:57:50;102472.81;;;23.20;28.94
74573;BME280;63071;51.526;-0.134;2023-03-01T12:03:25;102459.50;;;23.32;28.48
74573;BME280;63071;51.526;-0.134;2023-03-01T12:08:36;102464.63;;;23.37;28.75
74573;BME280;63071;51.526;-0.134;2023-03-01T12:19:42;102440.41;;;23.43;28.57
74573;BME280;63071;51.526;-0.134;2023-03-01T12:22:29;102434.63;;;23.40;28.46
74573;BME280;63071;51.526;-0.134;2023-03-01T12:25:50;102431.72;;;23.46;28.25
74573;BME280;63071;51.526;-0.134;2023-03-01T12:28:31;102424.50;;;23.46;28.30
74573;BME280;63071;51.526;-0.134;2023-03-01T12:31:43;102422.16;;;23.45;28.16
74573;BME280;63071;51.526;-0.134;2023-03-01T12:37:33;102405.72;;;23.43;28.41
74573;BME280;63071;51.526;-0.134;2023-03-01T12:40:20;102408.81;;;23.45;28.56
74573;BME280;63071;51.526;-0.134;2023-03-01T12:43:24;102400.50;;;23.46;28.55
74573;BME280;63071;51.526;-0.134;2023-03-01T12:51:23;102384.94;;;23.48;28.83
74573;BME280;63071;51.526;-0.134;2023-03-01T12:53:55;102379.91;;;23.47;28.83
74573;BME280;63071;51.526;-0.134;2023-03-01T12:56:28;102366.91;;;23.45;28.72
74573;BME280;63071;51.526;-0.134;2023-03-01T13:12:01;102345.78;;;23.52;29.12
74573;BME280;63071;51.526;-0.134;2023-03-01T13:16:58;102337.44;;;23.54;29.22
74573;BME280;63071;51.526;-0.134;2023-03-01T13:19:26;102346.69;;;23.56;29.41
74573;BME280;63071;51.526;-0.134;2023-03-01T13:21:55;102331.44;;;23.57;29.58
74573;BME280;63071;51.526;-0.134;2023-03-01T13:37:45;102333.34;;;23.56;29.27
74573;BME280;63071;51.526;-0.134;2023-03-01T13:42:54;102339.91;;;23.59;29.03
74573;BME280;63071;51.526;-0.134;2023-03-01T13:45:38;102338.31;;;23.58;29.31
74573;BME280;63071;51.526;-0.134;2023-03-01T13:48:15;102328.31;;;23.55;29.16
74573;BME280;63071;51.526;-0.134;2023-03-01T13:50:52;102332.22;;;23.57;29.33
74573;BME280;63071;51.526;-0.134;2023-03-01T13:53:22;102321.53;;;23.57;29.20
74573;BME280;63071;51.526;-0.134;2023-03-01T13:56:03;102323.09;;;23.58;29.28
74573;BME280;63071;51.526;-0.134;2023-03-01T13:58:47;102321.66;;;23.61;29.09
74573;BME280;63071;51.526;-0.134;2023-03-01T14:03:53;102312.63;;;23.66;29.39
74573;BME280;63071;51.526;-0.134;2023-03-01T14:06:28;102317.97;;;23.66;29.47
74573;BME280;63071;51.526;-0.134;2023-03-01T14:14:48;102301.19;;;23.65;29.25
74573;BME280;63071;51.526;-0.134;2023-03-01T14:22:41;102269.47;;;23.64;29.19
74573;BME280;63071;51.526;-0.134;2023-03-01T14:27:43;102275.25;;;23.66;29.58
74573;BME280;63071;51.526;-0.134;2023-03-01T14:30:22;102261.91;;;23.66;29.26
74573;BME280;63071;51.526;-0.134;2023-03-01T14:32:59;102266.16;;;23.67;29.17
74573;BME280;63071;51.526;-0.134;2023-03-01T14:35:29;102264.69;;;23.69;29.49
74573;BME280;63071;51.526;-0.134;2023-03-01T14:37:55;102263.94;;;23.69;29.42
74573;BME280;63071;51.526;-0.134;2023-03-01T14:40:36;102254.03;;;23.69;29.61
74573;BME280;63071;51.526;-0.134;2023-03-01T14:43:10;102252.13;;;23.70;29.48
74573;BME280;63071;51.526;-0.134;2023-03-01T14:45:36;102245.69;;;23.71;29.50
74573;BME280;63071;51.526;-0.134;2023-03-01T14:48:05;102249.44;;;23.70;29.62